sensor_id;sensor_type;location;lat;lon;timestamp;pressure;altitude;pressure_sealevel;temperature;humidity
58622;BME280;44389;51.578;5.456;2023-05-25T00:01:35;102415.00;;;7.86;100.00
58622;BME280;44389;51.578;5.456;2023-05-25T00:04:00;102417.16;;;7.80;100.00
58622;BME280;44389;51.578;5.456;2023-05-25T00:06:30;102413.00;;;7.82;100.00
58622;BME280;44389;51.578;5.456;2023-05-25T00:08:56;102414.69;;;7.82;100.00
58622;BME280;44389;51.578;5.456;2023-05-25T00:11:25;102416.16;;;7.78;100.00
58622;BME280;44389;51.578;5.456;2023-05-25T00:13:51;102413.81;;;7.81;100.00
58622;BME280;44389;51.578;5.456;2023-05-25T00:16:16;102417.06;;;7.79;100.00
58622;BME280;44389;51.578;5.456;2023-05-25T00:18:42;102409.38;;;7.79;100.00
58622;BME280;44389;51.578;5.456;2023-05-25T00:21:08;102407.69;;;7.79;100.00
58622;BME280;44389;51.578;5.456;2023-05-25T00:23:33;102415.97;;;7.75;100.00
58622;BME280;44389;51.578;5.456;2023-05-25T00:25:59;102416.84;;;7.75;100.00
58622;BME280;44389;51.578;5.456;2023-05-25T00:28:24;102411.53;;;7.72;100.00
58622;BME280;44389;51.578;5.456;2023-05-25T00:30:50;102413.75;;;7.68;100.00
58622;BME280;44389;51.578;5.456;2023-05-25T00:33:15;102413.47;;;7.63;100.00
58622;BME280;44389;51.578;5.456;2023-05-25T00:35:41;102418.72;;;7.65;100.00
58622;BME280;44389;51.578;5.456;2023-05-25T00:38:17;102419.16;;;7.59;100.00
58622;BME280;44389;51.578;5.456;2023-05-25T00:40:43;102426.66;;;7.56;100.00
58622;BME280;44389;51.578;5.456;2023-05-25T00:43:10;102421.22;;;7.51;100.00
58622;BME280;44389;51.578;5.456;2023-05-25T00:45:36;102419.03;;;7.44;100.00
58622;BME280;44389;51.578;5.456;2023-05-25T00:48:02;102425.03;;;7.45;100.00
58622;BME280;44389;51.578;5.456;2023-05-25T00:50:41;102430.41;;;7.48;100.00
58622;BME280;44389;51.578;5.456;2023-05-25T00:53:08;102419.03;;;7.44;100.00
58622;BME280;44389;51.578;5.456;2023-05-25T00:55:35;102417.00;;;7.52;100.00
58622;BME280;44389;51.578;5.456;2023-05-25T00:58:03;102422.19;;;7.40;100.00
58622;BME280;44389;51.578;5.456;2023-05-25T01:00:31;102419.88;;;7.31;100.00
58622;BME280;44389;51.578;5.456;2023-05-25T01:02:57;102427.34;;;7.28;100.00
58622;BME280;44389;51.578;5.456;2023-05-25T01:05:24;102430.06;;;7.18;100.00
58622;BME280;44389;51.578;5.456;2023-05-25T01:07:54;102422.28;;;7.16;100.00
58622;BME280;44389;51.578;5.456;2023-05-25T01:10:21;102434.78;;;7.12;100.00
58622;BME280;44389;51.578;5.456;2023-05-25T01:12:50;102432.91;;;7.09;100.00
58622;BME280;44389;51.578;5.456;2023-05-25T01:15:16;102433.34;;;7.03;100.00
58622;BME280;44389;51.578;5.456;2023-05-25T01:17:42;102428.03;;;7.00;100.00
58622;BME280;44389;51.578;5.456;2023-05-25T01:20:08;102430.69;;;7.02;100.00
58622;BME280;44389;51.578;5.456;2023-05-25T01:22:47;102435.63;;;6.99;100.00
58622;BME280;44389;51.578;5.456;2023-05-25T01:25:21;102435.19;;;6.92;100.00
58622;BME280;44389;51.578;5.456;2023-05-25T01:27:51;102436.63;;;6.89;100.00
58622;BME280;44389;51.578;5.456;2023-05-25T01:30:21;102445.78;;;6.85;100.00
58622;BME280;44389;51.578;5.456;2023-05-25T01:32:49;102446.44;;;6.83;100.00
58622;BME280;44389;51.578;5.456;2023-05-25T01:35:15;102451.84;;;6.74;100.00
58622;BME280;44389;51.578;5.456;2023-05-25T01:37:45;102451.59;;;6.71;100.00
58622;BME280;44389;51.578;5.456;2023-05-25T01:40:12;102452.06;;;6.65;100.00
58622;BME280;44389;51.578;5.456;2023-05-25T01:42:37;102445.72;;;6.60;100.00
58622;BME280;44389;51.578;5.456;2023-05-25T01:45:03;102449.16;;;6.61;100.00
58622;BME280;44389;51.578;5.456;2023-05-25T01:47:43;102451.16;;;6.53;100.00
58622;BME280;44389;51.578;5.456;2023-05-25T01:50:17;102453.63;;;6.51;100.00
58622;BME280;44389;51.578;5.456;2023-05-25T01:53:02;102458.75;;;6.51;100.00
58622;BME280;44389;51.578;5.456;2023-05-25T01:55:29;102462.34;;;6.53;100.00
58622;BME280;44389;51.578;5.456;2023-05-25T01:57:58;102456.31;;;6.41;100.00
58622;BME280;44389;51.578;5.456;2023-05-25T02:00:24;102446.06;;;6.41;100.00
58622;BME280;44389;51.578;5.456;2023-05-25T02:02:52;102452.53;;;6.36;100.00
58622;BME280;44389;51.578;5.456;2023-05-25T02:05:19;102448.94;;;6.34;100.00
58622;BME280;44389;51.578;5.456;2023-05-25T02:07:45;102451.50;;;6.34;100.00
58622;BME280;44389;51.578;5.456;2023-05-25T02:10:10;102458.09;;;6.30;100.00
58622;BME280;44389;51.578;5.456;2023-05-25T02:12:35;102455.53;;;6.30;100.00
58622;BME280;44389;51.578;5.456;2023-05-25T02:15:01;102448.53;;;6.28;100.00
58622;BME280;44389;51.578;5.456;2023-05-25T02:17:26;102451.19;;;6.29;100.00
58622;BME280;44389;51.578;5.456;2023-05-25T02:19:54;102443.50;;;6.41;100.00
58622;BME280;44389;51.578;5.456;2023-05-25T02:22:20;102448.53;;;6.28;100.00
58622;BME280;44389;51.578;5.456;2023-05-25T02:24:45;102451.63;;;6.23;100.00
58622;BME280;44389;51.578;5.456;2023-05-25T02:27:12;102455.28;;;6.15;100.00
58622;BME280;44389;51.578;5.456;2023-05-25T02:29:37;102456.31;;;6.17;100.00
58622;BME280;44389;51.578;5.456;2023-05-25T02:32:03;102451.97;;;6.16;100.00
58622;BME280;44389;51.578;5.456;2023-05-25T02:34:28;102453.41;;;6.24;100.00
58622;BME280;44389;51.578;5.456;2023-05-25T02:36:54;102455.09;;;6.12;100.00
58622;BME280;44389;51.578;5.456;2023-05-25T02:39:19;102456.06;;;6.14;100.00
58622;BME280;44389;51.578;5.456;2023-05-25T02:41:45;102453.19;;;6.09;100.00
58622;BME280;44389;51.578;5.456;2023-05-25T02:44:10;102453.41;;;6.01;100.00
58622;BME280;44389;51.578;5.456;2023-05-25T02:46:35;102454.53;;;6.04;100.00
58622;BME280;44389;51.578;5.456;2023-05-25T02:49:01;102449.25;;;6.03;100.00
58622;BME280;44389;51.578;5.456;2023-05-25T02:51:27;102454.84;;;6.09;100.00
58622;BME280;44389;51.578;5.456;2023-05-25T02:53:52;102449.28;;;6.26;100.00
58622;BME280;44389;51.578;5.456;2023-05-25T02:56:18;102457.44;;;6.33;100.00
58622;BME280;44389;51.578;5.456;2023-05-25T02:58:43;102457.53;;;6.22;100.00
58622;BME280;44389;51.578;5.456;2023-05-25T03:01:08;102459.84;;;6.19;100.00
58622;BME280;44389;51.578;5.456;2023-05-25T03:03:35;102448.50;;;6.04;100.00
58622;BME280;44389;51.578;5.456;2023-05-25T03:06:01;102450.44;;;5.84;100.00
58622;BME280;44389;51.578;5.456;2023-05-25T03:08:28;102456.09;;;5.80;100.00
58622;BME280;44389;51.578;5.456;2023-05-25T03:10:53;102457.56;;;5.88;100.00
58622;BME280;44389;51.578;5.456;2023-05-25T03:13:18;102462.38;;;5.96;100.00
58622;BME280;44389;51.578;5.456;2023-05-25T03:15:44;102471.25;;;5.89;100.00
58622;BME280;44389;51.578;5.456;2023-05-25T03:18:09;102469.38;;;5.86;100.00
58622;BME280;44389;51.578;5.456;2023-05-25T03:20:35;102468.22;;;5.83;100.00
58622;BME280;44389;51.578;5.456;2023-05-25T03:23:01;102479.69;;;5.76;100.00
58622;BME280;44389;51.578;5.456;2023-05-25T03:25:26;102480.44;;;5.75;100.00
58622;BME280;44389;51.578;5.456;2023-05-25T03:27:52;102481.97;;;5.73;100.00
58622;BME280;44389;51.578;5.456;2023-05-25T03:30:23;102488.88;;;5.74;100.00
58622;BME280;44389;51.578;5.456;2023-05-25T03:32:48;102491.34;;;5.72;100.00
58622;BME280;44389;51.578;5.456;2023-05-25T03:35:14;102492.31;;;5.74;100.00
58622;BME280;44389;51.578;5.456;2023-05-25T03:37:39;102495.34;;;5.81;100.00
58622;BME280;44389;51.578;5.456;2023-05-25T03:40:05;102495.34;;;5.81;100.00
58622;BME280;44389;51.578;5.456;2023-05-25T03:42:30;102500.25;;;5.77;100.00
58622;BME280;44389;51.578;5.456;2023-05-25T03:44:56;102504.25;;;5.74;100.00
58622;BME280;44389;51.578;5.456;2023-05-25T03:47:21;102505.66;;;5.70;100.00
58622;BME280;44389;51.578;5.456;2023-05-25T03:49:46;102506.59;;;5.71;100.00
58622;BME280;44389;51.578;5.456;2023-05-25T03:52:11;102508.34;;;5.72;100.00
58622;BME280;44389;51.578;5.456;2023-05-25T03:54:37;102507.91;;;5.66;100.00
58622;BME280;44389;51.578;5.456;2023-05-25T03:57:02;102519.13;;;5.68;100.00
58622;BME280;44389;51.578;5.456;2023-05-25T03:59:28;102516.44;;;5.66;100.00
58622;BME280;44389;51.578;5.456;2023-05-25T04:01:53;102517.59;;;5.70;100.00
58622;BME280;44389;51.578;5.456;2023-05-25T04:04:19;102514.25;;;5.71;100.00
58622;BME280;44389;51.578;5.456;2023-05-25T04:06:44;102507.56;;;5.73;100.00
58622;BME280;44389;51.578;5.456;2023-05-25T04:09:15;102510.50;;;5.77;100.00
58622;BME280;44389;51.578;5.456;2023-05-25T04:11:41;102508.97;;;5.91;100.00
58622;BME280;44389;51.578;5.456;2023-05-25T04:14:06;102502.28;;;5.93;100.00
58622;BME280;44389;51.578;5.456;2023-05-25T04:16:31;102502.94;;;5.91;100.00
58622;BME280;44389;51.578;5.456;2023-05-25T04:18:57;102505.56;;;6.03;100.00
58622;BME280;44389;51.578;5.456;2023-05-25T04:21:22;102507.25;;;6.14;100.00
58622;BME280;44389;51.578;5.456;2023-05-25T04:23:47;102516.81;;;6.05;100.00
58622;BME280;44389;51.578;5.456;2023-05-25T04:26:12;102508.59;;;6.09;100.00
58622;BME280;44389;51.578;5.456;2023-05-25T04:28:39;102512.06;;;6.09;100.00
58622;BME280;44389;51.578;5.456;2023-05-25T04:31:05;102525.75;;;6.10;100.00
58622;BME280;44389;51.578;5.456;2023-05-25T04:33:31;102520.75;;;6.23;100.00
58622;BME280;44389;51.578;5.456;2023-05-25T04:35:58;102516.28;;;6.21;100.00
58622;BME280;44389;51.578;5.456;2023-05-25T04:38:24;102520.22;;;6.28;100.00
58622;BME280;44389;51.578;5.456;2023-05-25T04:40:50;102529.66;;;6.29;100.00
58622;BME280;44389;51.578;5.456;2023-05-25T04:43:17;102524.34;;;6.37;100.00
58622;BME280;44389;51.578;5.456;2023-05-25T04:45:44;102527.25;;;6.42;100.00
58622;BME280;44389;51.578;5.456;2023-05-25T04:48:11;102526.22;;;6.52;100.00
58622;BME280;44389;51.578;5.456;2023-05-25T04:50:40;102526.47;;;6.55;100.00
58622;BME280;44389;51.578;5.456;2023-05-25T04:53:05;102528.69;;;6.62;100.00
58622;BME280;44389;51.578;5.456;2023-05-25T04:55:31;102536.94;;;6.70;100.00
58622;BME280;44389;51.578;5.456;2023-05-25T04:57:56;102528.47;;;6.83;100.00
58622;BME280;44389;51.578;5.456;2023-05-25T05:00:21;102528.91;;;6.89;100.00
58622;BME280;44389;51.578;5.456;2023-05-25T05:02:47;102529.78;;;7.01;100.00
58622;BME280;44389;51.578;5.456;2023-05-25T05:05:12;102537.22;;;7.10;100.00
58622;BME280;44389;51.578;5.456;2023-05-25T05:07:38;102542.88;;;7.18;100.00
58622;BME280;44389;51.578;5.456;2023-05-25T05:10:04;102539.13;;;7.24;100.00
58622;BME280;44389;51.578;5.456;2023-05-25T05:12:29;102533.72;;;7.33;100.00
58622;BME280;44389;51.578;5.456;2023-05-25T05:14:54;102537.03;;;7.44;100.00
58622;BME280;44389;51.578;5.456;2023-05-25T05:17:20;102535.00;;;7.52;100.00
58622;BME280;44389;51.578;5.456;2023-05-25T05:19:47;102539.66;;;7.57;100.00
58622;BME280;44389;51.578;5.456;2023-05-25T05:22:12;102542.19;;;7.69;100.00
58622;BME280;44389;51.578;5.456;2023-05-25T05:24:40;102547.06;;;7.78;100.00
58622;BME280;44389;51.578;5.456;2023-05-25T05:27:05;102551.16;;;7.88;100.00
58622;BME280;44389;51.578;5.456;2023-05-25T05:29:30;102557.59;;;7.95;100.00
58622;BME280;44389;51.578;5.456;2023-05-25T05:31:56;102554.44;;;7.99;100.00
58622;BME280;44389;51.578;5.456;2023-05-25T05:34:21;102553.28;;;8.07;100.00
58622;BME280;44389;51.578;5.456;2023-05-25T05:36:46;102554.09;;;8.19;100.00
58622;BME280;44389;51.578;5.456;2023-05-25T05:39:12;102570.34;;;8.32;100.00
58622;BME280;44389;51.578;5.456;2023-05-25T05:41:37;102566.50;;;8.38;100.00
58622;BME280;44389;51.578;5.456;2023-05-25T05:44:03;102570.84;;;8.39;100.00
58622;BME280;44389;51.578;5.456;2023-05-25T05:46:28;102573.78;;;8.57;100.00
58622;BME280;44389;51.578;5.456;2023-05-25T05:48:53;102576.44;;;8.59;100.00
58622;BME280;44389;51.578;5.456;2023-05-25T05:51:19;102582.19;;;8.68;100.00
58622;BME280;44389;51.578;5.456;2023-05-25T05:53:44;102587.22;;;8.67;100.00
58622;BME280;44389;51.578;5.456;2023-05-25T05:56:16;102580.88;;;8.75;100.00
58622;BME280;44389;51.578;5.456;2023-05-25T05:58:41;102586.25;;;8.78;100.00
58622;BME280;44389;51.578;5.456;2023-05-25T06:01:06;102587.44;;;8.83;100.00
58622;BME280;44389;51.578;5.456;2023-05-25T06:03:33;102590.69;;;8.94;100.00
58622;BME280;44389;51.578;5.456;2023-05-25T06:05:58;102598.50;;;8.96;100.00
58622;BME280;44389;51.578;5.456;2023-05-25T06:08:24;102597.69;;;9.10;100.00
58622;BME280;44389;51.578;5.456;2023-05-25T06:10:49;102597.13;;;9.14;100.00
58622;BME280;44389;51.578;5.456;2023-05-25T06:13:15;102594.81;;;9.32;100.00
58622;BME280;44389;51.578;5.456;2023-05-25T06:15:40;102594.88;;;9.47;100.00
58622;BME280;44389;51.578;5.456;2023-05-25T06:18:05;102592.06;;;9.58;100.00
58622;BME280;44389;51.578;5.456;2023-05-25T06:20:31;102591.66;;;9.65;100.00
58622;BME280;44389;51.578;5.456;2023-05-25T06:22:57;102598.47;;;9.78;100.00
58622;BME280;44389;51.578;5.456;2023-05-25T06:25:22;102600.34;;;9.80;100.00
58622;BME280;44389;51.578;5.456;2023-05-25T06:27:48;102601.97;;;9.93;100.00
58622;BME280;44389;51.578;5.456;2023-05-25T06:30:13;102598.06;;;10.00;100.00
58622;BME280;44389;51.578;5.456;2023-05-25T06:32:38;102600.09;;;10.05;100.00
58622;BME280;44389;51.578;5.456;2023-05-25T06:35:04;102620.00;;;10.08;100.00
58622;BME280;44389;51.578;5.456;2023-05-25T06:37:30;102610.69;;;10.10;100.00
58622;BME280;44389;51.578;5.456;2023-05-25T06:40:00;102613.19;;;10.24;100.00
58622;BME280;44389;51.578;5.456;2023-05-25T06:42:26;102615.19;;;10.28;100.00
58622;BME280;44389;51.578;5.456;2023-05-25T06:44:51;102616.41;;;10.19;100.00
58622;BME280;44389;51.578;5.456;2023-05-25T06:47:17;102627.50;;;10.18;100.00
58622;BME280;44389;51.578;5.456;2023-05-25T06:49:42;102625.63;;;10.16;100.00
58622;BME280;44389;51.578;5.456;2023-05-25T06:52:07;102635.44;;;10.21;100.00
58622;BME280;44389;51.578;5.456;2023-05-25T06:54:32;102633.22;;;10.28;100.00
58622;BME280;44389;51.578;5.456;2023-05-25T06:56:58;102633.09;;;10.26;100.00
58622;BME280;44389;51.578;5.456;2023-05-25T06:59:23;102631.69;;;10.31;100.00
58622;BME280;44389;51.578;5.456;2023-05-25T07:01:48;102633.00;;;10.38;100.00
58622;BME280;44389;51.578;5.456;2023-05-25T07:04:14;102631.75;;;10.46;100.00
58622;BME280;44389;51.578;5.456;2023-05-25T07:06:39;102627.84;;;10.83;100.00
58622;BME280;44389;51.578;5.456;2023-05-25T07:09:04;102639.81;;;11.12;100.00
58622;BME280;44389;51.578;5.456;2023-05-25T07:11:30;102631.63;;;11.36;100.00
58622;BME280;44389;51.578;5.456;2023-05-25T07:13:55;102631.97;;;11.42;100.00
58622;BME280;44389;51.578;5.456;2023-05-25T07:16:21;102632.47;;;11.51;100.00
58622;BME280;44389;51.578;5.456;2023-05-25T07:18:46;102637.75;;;11.69;100.00
58622;BME280;44389;51.578;5.456;2023-05-25T07:21:11;102634.47;;;11.89;100.00
58622;BME280;44389;51.578;5.456;2023-05-25T07:23:37;102634.97;;;11.98;100.00
58622;BME280;44389;51.578;5.456;2023-05-25T07:26:04;102635.16;;;12.17;100.00
58622;BME280;44389;51.578;5.456;2023-05-25T07:28:30;102628.94;;;12.48;100.00
58622;BME280;44389;51.578;5.456;2023-05-25T07:30:55;102636.16;;;12.72;100.00
58622;BME280;44389;51.578;5.456;2023-05-25T07:33:21;102643.28;;;12.94;98.78
58622;BME280;44389;51.578;5.456;2023-05-25T07:35:46;102636.97;;;13.07;96.14
58622;BME280;44389;51.578;5.456;2023-05-25T07:38:11;102639.88;;;13.13;94.20
58622;BME280;44389;51.578;5.456;2023-05-25T07:40:36;102641.13;;;13.04;90.70
58622;BME280;44389;51.578;5.456;2023-05-25T07:43:02;102638.06;;;13.30;93.34
58622;BME280;44389;51.578;5.456;2023-05-25T07:45:27;102642.16;;;13.25;91.46
58622;BME280;44389;51.578;5.456;2023-05-25T07:47:52;102641.88;;;13.37;91.11
58622;BME280;44389;51.578;5.456;2023-05-25T07:50:18;102650.06;;;13.46;91.43
58622;BME280;44389;51.578;5.456;2023-05-25T07:52:44;102643.69;;;13.58;90.91
58622;BME280;44389;51.578;5.456;2023-05-25T07:55:10;102652.59;;;13.45;88.79
58622;BME280;44389;51.578;5.456;2023-05-25T07:57:35;102647.38;;;13.63;88.59
58622;BME280;44389;51.578;5.456;2023-05-25T08:00:01;102643.00;;;13.62;87.05
58622;BME280;44389;51.578;5.456;2023-05-25T08:02:26;102647.06;;;13.94;89.81
58622;BME280;44389;51.578;5.456;2023-05-25T08:04:52;102649.56;;;14.12;87.92
58622;BME280;44389;51.578;5.456;2023-05-25T08:07:18;102656.81;;;14.20;85.21
58622;BME280;44389;51.578;5.456;2023-05-25T08:09:44;102655.44;;;14.08;81.75
58622;BME280;44389;51.578;5.456;2023-05-25T08:12:09;102653.94;;;14.13;82.09
58622;BME280;44389;51.578;5.456;2023-05-25T08:14:34;102663.34;;;14.31;82.29
58622;BME280;44389;51.578;5.456;2023-05-25T08:17:00;102662.78;;;14.58;82.61
58622;BME280;44389;51.578;5.456;2023-05-25T08:19:26;102662.59;;;14.74;81.52
58622;BME280;44389;51.578;5.456;2023-05-25T08:21:52;102661.59;;;14.92;80.66
58622;BME280;44389;51.578;5.456;2023-05-25T08:24:17;102658.88;;;14.89;78.98
58622;BME280;44389;51.578;5.456;2023-05-25T08:26:43;102666.22;;;14.99;78.08
58622;BME280;44389;51.578;5.456;2023-05-25T08:29:09;102665.25;;;14.97;77.63
58622;BME280;44389;51.578;5.456;2023-05-25T08:31:34;102661.50;;;15.33;78.25
58622;BME280;44389;51.578;5.456;2023-05-25T08:34:01;102663.19;;;15.55;77.89
58622;BME280;44389;51.578;5.456;2023-05-25T08:36:26;102666.09;;;15.62;76.87
58622;BME280;44389;51.578;5.456;2023-05-25T08:38:52;102667.59;;;15.80;73.95
58622;BME280;44389;51.578;5.456;2023-05-25T08:41:18;102665.03;;;16.04;72.81
58622;BME280;44389;51.578;5.456;2023-05-25T08:43:44;102668.91;;;16.16;73.13
58622;BME280;44389;51.578;5.456;2023-05-25T08:46:10;102674.38;;;16.48;72.56
58622;BME280;44389;51.578;5.456;2023-05-25T08:48:36;102670.09;;;16.50;71.54
58622;BME280;44389;51.578;5.456;2023-05-25T08:51:09;102669.69;;;16.37;69.33
58622;BME280;44389;51.578;5.456;2023-05-25T08:53:37;102672.56;;;16.45;67.45
58622;BME280;44389;51.578;5.456;2023-05-25T08:56:07;102671.66;;;16.70;69.81
58622;BME280;44389;51.578;5.456;2023-05-25T08:58:38;102677.59;;;16.66;69.13
58622;BME280;44389;51.578;5.456;2023-05-25T09:01:08;102673.84;;;16.84;70.22
58622;BME280;44389;51.578;5.456;2023-05-25T09:03:34;102675.00;;;16.66;68.81
58622;BME280;44389;51.578;5.456;2023-05-25T09:06:01;102685.69;;;16.50;68.56
58622;BME280;44389;51.578;5.456;2023-05-25T09:08:26;102680.75;;;16.32;68.00
58622;BME280;44389;51.578;5.456;2023-05-25T09:10:52;102683.44;;;16.09;66.91
58622;BME280;44389;51.578;5.456;2023-05-25T09:13:19;102689.16;;;16.00;68.82
58622;BME280;44389;51.578;5.456;2023-05-25T09:15:45;102688.88;;;15.70;68.08
58622;BME280;44389;51.578;5.456;2023-05-25T09:18:10;102683.84;;;15.74;71.42
58622;BME280;44389;51.578;5.456;2023-05-25T09:20:35;102679.78;;;15.81;69.22
58622;BME280;44389;51.578;5.456;2023-05-25T09:23:01;102688.50;;;15.82;67.90
58622;BME280;44389;51.578;5.456;2023-05-25T09:25:27;102684.72;;;15.75;66.88
58622;BME280;44389;51.578;5.456;2023-05-25T09:27:54;102690.00;;;15.76;67.51
58622;BME280;44389;51.578;5.456;2023-05-25T09:30:22;102684.63;;;15.72;68.25
58622;BME280;44389;51.578;5.456;2023-05-25T09:32:47;102687.50;;;15.57;67.74
58622;BME280;44389;51.578;5.456;2023-05-25T09:35:13;102690.38;;;15.40;67.48
58622;BME280;44389;51.578;5.456;2023-05-25T09:37:40;102708.25;;;15.11;66.67
58622;BME280;44389;51.578;5.456;2023-05-25T09:40:06;102697.56;;;15.25;70.35
58622;BME280;44389;51.578;5.456;2023-05-25T09:42:32;102696.22;;;15.13;68.85
58622;BME280;44389;51.578;5.456;2023-05-25T09:44:58;102694.44;;;15.12;69.00
58622;BME280;44389;51.578;5.456;2023-05-25T09:47:27;102695.25;;;15.11;70.01
58622;BME280;44389;51.578;5.456;2023-05-25T09:49:52;102697.91;;;15.13;70.21
58622;BME280;44389;51.578;5.456;2023-05-25T09:52:18;102697.47;;;15.23;71.50
58622;BME280;44389;51.578;5.456;2023-05-25T09:54:45;102684.50;;;15.46;72.66
58622;BME280;44389;51.578;5.456;2023-05-25T09:57:10;102696.63;;;15.45;69.29
58622;BME280;44389;51.578;5.456;2023-05-25T09:59:36;102691.53;;;15.48;68.24
58622;BME280;44389;51.578;5.456;2023-05-25T10:02:01;102687.47;;;15.78;69.85
58622;BME280;44389;51.578;5.456;2023-05-25T10:04:26;102697.47;;;15.90;67.86
58622;BME280;44389;51.578;5.456;2023-05-25T10:06:52;102693.59;;;16.03;67.30
58622;BME280;44389;51.578;5.456;2023-05-25T10:09:18;102699.13;;;16.12;65.59
58622;BME280;44389;51.578;5.456;2023-05-25T10:11:44;102700.00;;;16.12;66.25
58622;BME280;44389;51.578;5.456;2023-05-25T10:14:13;102699.47;;;16.21;66.57
58622;BME280;44389;51.578;5.456;2023-05-25T10:16:41;102701.78;;;16.38;65.27
58622;BME280;44389;51.578;5.456;2023-05-25T10:21:36;102702.88;;;16.94;62.27
58622;BME280;44389;51.578;5.456;2023-05-25T10:27:10;102712.03;;;16.59;61.11
58622;BME280;44389;51.578;5.456;2023-05-25T10:29:38;102701.38;;;16.77;61.03
58622;BME280;44389;51.578;5.456;2023-05-25T10:32:04;102696.41;;;17.10;60.71
58622;BME280;44389;51.578;5.456;2023-05-25T10:34:30;102705.53;;;17.81;59.47
58622;BME280;44389;51.578;5.456;2023-05-25T10:36:56;102698.00;;;18.21;56.26
58622;BME280;44389;51.578;5.456;2023-05-25T10:39:22;102699.88;;;18.26;54.47
58622;BME280;44389;51.578;5.456;2023-05-25T10:41:49;102704.88;;;18.19;54.92
58622;BME280;44389;51.578;5.456;2023-05-25T10:44:16;102709.13;;;17.85;54.62
58622;BME280;44389;51.578;5.456;2023-05-25T10:46:41;102714.75;;;17.70;56.47
58622;BME280;44389;51.578;5.456;2023-05-25T10:49:09;102711.75;;;17.56;56.89
58622;BME280;44389;51.578;5.456;2023-05-25T10:51:38;102704.66;;;17.52;56.83
58622;BME280;44389;51.578;5.456;2023-05-25T10:54:04;102695.16;;;18.79;54.82
58622;BME280;44389;51.578;5.456;2023-05-25T10:56:29;102695.13;;;19.52;51.51
58622;BME280;44389;51.578;5.456;2023-05-25T10:58:55;102697.09;;;20.48;47.82
58622;BME280;44389;51.578;5.456;2023-05-25T11:01:21;102708.97;;;20.78;44.70
58622;BME280;44389;51.578;5.456;2023-05-25T11:03:53;102708.13;;;20.31;44.69
58622;BME280;44389;51.578;5.456;2023-05-25T11:09:01;102693.91;;;19.34;48.46
58622;BME280;44389;51.578;5.456;2023-05-25T11:14:42;102694.06;;;18.70;52.32
58622;BME280;44389;51.578;5.456;2023-05-25T11:17:17;102691.88;;;19.62;49.26
58622;BME280;44389;51.578;5.456;2023-05-25T11:19:52;102694.06;;;20.74;48.73
58622;BME280;44389;51.578;5.456;2023-05-25T11:22:20;102693.09;;;21.88;42.75
58622;BME280;44389;51.578;5.456;2023-05-25T11:24:47;102694.44;;;22.33;39.01
58622;BME280;44389;51.578;5.456;2023-05-25T11:27:13;102693.44;;;22.19;38.72
58622;BME280;44389;51.578;5.456;2023-05-25T11:29:38;102690.75;;;21.44;41.49
58622;BME280;44389;51.578;5.456;2023-05-25T11:32:11;102692.31;;;20.74;44.05
58622;BME280;44389;51.578;5.456;2023-05-25T11:34:37;102688.53;;;20.11;46.22
58622;BME280;44389;51.578;5.456;2023-05-25T11:37:03;102681.88;;;19.44;46.89
58622;BME280;44389;51.578;5.456;2023-05-25T11:39:29;102671.13;;;18.92;48.61
58622;BME280;44389;51.578;5.456;2023-05-25T11:42:00;102680.75;;;18.59;51.25
58622;BME280;44389;51.578;5.456;2023-05-25T11:44:30;102678.72;;;18.16;51.83
58622;BME280;44389;51.578;5.456;2023-05-25T11:47:00;102681.22;;;18.13;53.68
58622;BME280;44389;51.578;5.456;2023-05-25T11:49:26;102678.03;;;18.23;54.33
58622;BME280;44389;51.578;5.456;2023-05-25T11:51:52;102678.53;;;18.41;53.16
58622;BME280;44389;51.578;5.456;2023-05-25T11:54:25;102672.31;;;18.36;51.23
58622;BME280;44389;51.578;5.456;2023-05-25T11:56:52;102670.16;;;18.21;52.78
58622;BME280;44389;51.578;5.456;2023-05-25T11:59:20;102671.56;;;18.08;52.21
58622;BME280;44389;51.578;5.456;2023-05-25T12:02:00;102669.72;;;18.04;53.07
58622;BME280;44389;51.578;5.456;2023-05-25T12:04:27;102657.50;;;18.03;52.52
58622;BME280;44389;51.578;5.456;2023-05-25T12:07:03;102659.56;;;18.15;53.41
58622;BME280;44389;51.578;5.456;2023-05-25T12:09:29;102657.31;;;18.29;52.63
58622;BME280;44389;51.578;5.456;2023-05-25T12:11:54;102655.06;;;19.94;49.19
58622;BME280;44389;51.578;5.456;2023-05-25T12:14:19;102653.59;;;21.13;46.84
58622;BME280;44389;51.578;5.456;2023-05-25T12:16:45;102651.72;;;21.67;44.06
58622;BME280;44389;51.578;5.456;2023-05-25T12:19:11;102648.72;;;21.41;43.91
58622;BME280;44389;51.578;5.456;2023-05-25T12:21:39;102655.31;;;20.57;43.58
58622;BME280;44389;51.578;5.456;2023-05-25T12:24:04;102648.44;;;20.12;44.61
58622;BME280;44389;51.578;5.456;2023-05-25T12:26:30;102644.47;;;19.88;44.62
58622;BME280;44389;51.578;5.456;2023-05-25T12:31:29;102634.94;;;20.93;43.95
58622;BME280;44389;51.578;5.456;2023-05-25T12:36:50;102636.59;;;20.34;44.76
58622;BME280;44389;51.578;5.456;2023-05-25T12:41:53;102640.72;;;18.94;47.93
58622;BME280;44389;51.578;5.456;2023-05-25T12:46:56;102649.19;;;18.17;50.37
58622;BME280;44389;51.578;5.456;2023-05-25T12:49:33;102642.00;;;18.09;50.39
58622;BME280;44389;51.578;5.456;2023-05-25T12:52:00;102645.63;;;18.15;49.59
58622;BME280;44389;51.578;5.456;2023-05-25T12:54:40;102642.06;;;18.45;53.49
58622;BME280;44389;51.578;5.456;2023-05-25T12:57:08;102637.72;;;19.17;50.20
58622;BME280;44389;51.578;5.456;2023-05-25T12:59:35;102638.94;;;18.93;48.53
58622;BME280;44389;51.578;5.456;2023-05-25T13:02:02;102632.94;;;18.62;49.52
58622;BME280;44389;51.578;5.456;2023-05-25T13:04:27;102628.56;;;18.27;50.53
58622;BME280;44389;51.578;5.456;2023-05-25T13:06:53;102630.34;;;17.97;51.45
58622;BME280;44389;51.578;5.456;2023-05-25T13:09:22;102632.28;;;17.73;52.84